sensor_id;sensor_type;location;lat;lon;timestamp;temperature;humidity
4054;DHT22;2042;47.956;9.222;2023-02-22T00:00:25;-1.90;5.00
4054;DHT22;2042;47.956;9.222;2023-02-22T00:03:01;-1.90;4.80
4054;DHT22;2042;47.956;9.222;2023-02-22T00:05:28;-2.00;4.00
4054;DHT22;2042;47.956;9.222;2023-02-22T00:07:56;-2.00;3.70
4054;DHT22;2042;47.956;9.222;2023-02-22T00:10:23;-2.00;4.00
4054;DHT22;2042;47.956;9.222;2023-02-22T00:12:51;-2.10;4.20
4054;DHT22;2042;47.956;9.222;2023-02-22T00:15:19;-2.10;4.40
4054;DHT22;2042;47.956;9.222;2023-02-22T00:17:46;-2.10;4.60
4054;DHT22;2042;47.956;9.222;2023-02-22T00:20:13;-2.10;5.70
4054;DHT22;2042;47.956;9.222;2023-02-22T00:22:43;-2.00;6.10
4054;DHT22;2042;47.956;9.222;2023-02-22T00:25:11;-2.00;6.20
4054;DHT22;2042;47.956;9.222;2023-02-22T00:27:38;-1.90;7.20
4054;DHT22;2042;47.956;9.222;2023-02-22T00:30:04;-1.90;7.60
4054;DHT22;2042;47.956;9.222;2023-02-22T00:32:30;-1.80;7.80
4054;DHT22;2042;47.956;9.222;2023-02-22T00:34:56;-1.80;7.90
4054;DHT22;2042;47.956;9.222;2023-02-22T00:37:22;-1.80;7.50
4054;DHT22;2042;47.956;9.222;2023-02-22T00:39:48;-1.90;6.90
4054;DHT22;2042;47.956;9.222;2023-02-22T00:42:16;-2.00;6.50
4054;DHT22;2042;47.956;9.222;2023-02-22T00:44:42;-2.10;6.60
4054;DHT22;2042;47.956;9.222;2023-02-22T00:47:08;-2.10;6.70
4054;DHT22;2042;47.956;9.222;2023-02-22T00:49:35;-2.10;6.80
4054;DHT22;2042;47.956;9.222;2023-02-22T00:52:01;-2.20;6.70
4054;DHT22;2042;47.956;9.222;2023-02-22T00:54:26;-2.20;7.00
4054;DHT22;2042;47.956;9.222;2023-02-22T00:56:52;-2.20;7.10
4054;DHT22;2042;47.956;9.222;2023-02-22T00:59:18;-2.20;7.10
4054;DHT22;2042;47.956;9.222;2023-02-22T01:01:45;-2.20;6.60
4054;DHT22;2042;47.956;9.222;2023-02-22T01:04:11;-2.30;5.90
4054;DHT22;2042;47.956;9.222;2023-02-22T01:06:36;-2.30;5.80
4054;DHT22;2042;47.956;9.222;2023-02-22T01:09:02;-2.40;6.20
4054;DHT22;2042;47.956;9.222;2023-02-22T01:11:28;-2.30;7.00
4054;DHT22;2042;47.956;9.222;2023-02-22T01:13:55;-2.30;7.20
4054;DHT22;2042;47.956;9.222;2023-02-22T01:16:22;-2.30;7.30
4054;DHT22;2042;47.956;9.222;2023-02-22T01:18:48;-2.30;6.80
4054;DHT22;2042;47.956;9.222;2023-02-22T01:21:13;-2.40;6.40
4054;DHT22;2042;47.956;9.222;2023-02-22T01:23:39;-2.40;6.40
4054;DHT22;2042;47.956;9.222;2023-02-22T01:26:05;-2.40;7.20
4054;DHT22;2042;47.956;9.222;2023-02-22T01:28:31;-2.30;8.30
4054;DHT22;2042;47.956;9.222;2023-02-22T01:30:57;-2.30;8.80
4054;DHT22;2042;47.956;9.222;2023-02-22T01:33:23;-2.30;8.00
4054;DHT22;2042;47.956;9.222;2023-02-22T01:35:50;-2.40;6.70
4054;DHT22;2042;47.956;9.222;2023-02-22T01:38:16;-2.40;5.90
4054;DHT22;2042;47.956;9.222;2023-02-22T01:40:46;-2.60;5.30
4054;DHT22;2042;47.956;9.222;2023-02-22T01:43:20;-2.70;5.00
4054;DHT22;2042;47.956;9.222;2023-02-22T01:48:41;-2.80;5.20
4054;DHT22;2042;47.956;9.222;2023-02-22T01:51:37;-2.90;5.40
4054;DHT22;2042;47.956;9.222;2023-02-22T01:54:32;-2.90;5.50
4054;DHT22;2042;47.956;9.222;2023-02-22T01:59:33;-2.90;6.10
4054;DHT22;2042;47.956;9.222;2023-02-22T02:02:00;-2.90;7.00
4054;DHT22;2042;47.956;9.222;2023-02-22T02:04:26;-2.80;7.60
4054;DHT22;2042;47.956;9.222;2023-02-22T02:06:53;-2.70;8.50
4054;DHT22;2042;47.956;9.222;2023-02-22T02:12:00;-2.60;8.90
4054;DHT22;2042;47.956;9.222;2023-02-22T02:14:27;-2.60;9.60
4054;DHT22;2042;47.956;9.222;2023-02-22T02:16:56;-2.60;9.30
4054;DHT22;2042;47.956;9.222;2023-02-22T02:20:02;-2.60;9.30
4054;DHT22;2042;47.956;9.222;2023-02-22T02:22:50;-2.70;8.20
4054;DHT22;2042;47.956;9.222;2023-02-22T02:28:41;-2.80;8.60
4054;DHT22;2042;47.956;9.222;2023-02-22T02:34:18;-2.90;7.70
4054;DHT22;2042;47.956;9.222;2023-02-22T02:37:08;-3.00;7.60
4054;DHT22;2042;47.956;9.222;2023-02-22T02:40:08;-3.00;7.60
4054;DHT22;2042;47.956;9.222;2023-02-22T02:42:47;-3.00;8.40
4054;DHT22;2042;47.956;9.222;2023-02-22T02:45:25;-3.00;9.00
4054;DHT22;2042;47.956;9.222;2023-02-22T02:47:55;-2.90;9.20
4054;DHT22;2042;47.956;9.222;2023-02-22T02:50:30;-2.90;8.80
4054;DHT22;2042;47.956;9.222;2023-02-22T02:53:00;-3.00;7.90
4054;DHT22;2042;47.956;9.222;2023-02-22T02:55:28;-2.90;9.00
4054;DHT22;2042;47.956;9.222;2023-02-22T02:57:54;-2.80;9.40
4054;DHT22;2042;47.956;9.222;2023-02-22T03:00:24;-2.70;9.50
4054;DHT22;2042;47.956;9.222;2023-02-22T03:11:35;-3.00;7.50
4054;DHT22;2042;47.956;9.222;2023-02-22T03:16:57;-2.90;7.60
4054;DHT22;2042;47.956;9.222;2023-02-22T03:22:15;-3.10;5.40
4054;DHT22;2042;47.956;9.222;2023-02-22T03:27:30;-3.20;5.30
4054;DHT22;2042;47.956;9.222;2023-02-22T03:30:00;-3.30;5.30
4054;DHT22;2042;47.956;9.222;2023-02-22T03:32:30;-3.30;5.20
4054;DHT22;2042;47.956;9.222;2023-02-22T03:35:02;-3.30;6.10
4054;DHT22;2042;47.956;9.222;2023-02-22T03:37:32;-3.20;6.80
4054;DHT22;2042;47.956;9.222;2023-02-22T03:40:00;-3.20;7.10
4054;DHT22;2042;47.956;9.222;2023-02-22T03:42:34;-3.20;6.80
4054;DHT22;2042;47.956;9.222;2023-02-22T03:45:03;-3.20;6.40
4054;DHT22;2042;47.956;9.222;2023-02-22T03:47:36;-3.30;5.80
4054;DHT22;2042;47.956;9.222;2023-02-22T03:50:10;-3.30;6.10
4054;DHT22;2042;47.956;9.222;2023-02-22T03:52:40;-3.30;6.30
4054;DHT22;2042;47.956;9.222;2023-02-22T03:55:08;-3.30;5.60
4054;DHT22;2042;47.956;9.222;2023-02-22T03:57:38;-3.40;4.90
4054;DHT22;2042;47.956;9.222;2023-02-22T04:00:07;-3.50;4.80
4054;DHT22;2042;47.956;9.222;2023-02-22T04:02:33;-3.60;4.20
4054;DHT22;2042;47.956;9.222;2023-02-22T04:04:59;-3.60;5.00
4054;DHT22;2042;47.956;9.222;2023-02-22T04:07:25;-3.60;5.90
4054;DHT22;2042;47.956;9.222;2023-02-22T04:09:51;-3.40;7.50
4054;DHT22;2042;47.956;9.222;2023-02-22T04:12:16;-3.30;8.20
4054;DHT22;2042;47.956;9.222;2023-02-22T04:14:42;-3.30;8.10
4054;DHT22;2042;47.956;9.222;2023-02-22T04:17:08;-3.30;7.60
4054;DHT22;2042;47.956;9.222;2023-02-22T04:19:34;-3.30;7.40
4054;DHT22;2042;47.956;9.222;2023-02-22T04:21:59;-3.40;7.20
4054;DHT22;2042;47.956;9.222;2023-02-22T04:24:27;-3.40;7.00
4054;DHT22;2042;47.956;9.222;2023-02-22T04:26:52;-3.50;6.50
4054;DHT22;2042;47.956;9.222;2023-02-22T04:29:19;-3.60;6.50
4054;DHT22;2042;47.956;9.222;2023-02-22T04:31:45;-3.50;7.40
4054;DHT22;2042;47.956;9.222;2023-02-22T04:34:11;-3.50;7.80
4054;DHT22;2042;47.956;9.222;2023-02-22T04:36:36;-3.50;7.70
4054;DHT22;2042;47.956;9.222;2023-02-22T04:39:03;-3.50;7.20
4054;DHT22;2042;47.956;9.222;2023-02-22T04:41:30;-3.60;6.80
4054;DHT22;2042;47.956;9.222;2023-02-22T04:43:56;-3.60;6.30
4054;DHT22;2042;47.956;9.222;2023-02-22T04:46:22;-3.70;6.10
4054;DHT22;2042;47.956;9.222;2023-02-22T04:48:48;-3.70;6.80
4054;DHT22;2042;47.956;9.222;2023-02-22T04:51:14;-3.60;7.40
4054;DHT22;2042;47.956;9.222;2023-02-22T04:53:40;-3.60;7.50
4054;DHT22;2042;47.956;9.222;2023-02-22T04:56:06;-3.70;6.20
4054;DHT22;2042;47.956;9.222;2023-02-22T04:58:31;-3.80;5.40
4054;DHT22;2042;47.956;9.222;2023-02-22T05:00:57;-3.90;4.80
4054;DHT22;2042;47.956;9.222;2023-02-22T05:03:23;-3.90;5.10
4054;DHT22;2042;47.956;9.222;2023-02-22T05:05:51;-3.90;5.30
4054;DHT22;2042;47.956;9.222;2023-02-22T05:08:16;-3.90;5.30
4054;DHT22;2042;47.956;9.222;2023-02-22T05:10:42;-3.80;6.00
4054;DHT22;2042;47.956;9.222;2023-02-22T05:13:08;-3.70;7.10
4054;DHT22;2042;47.956;9.222;2023-02-22T05:15:34;-3.70;6.80
4054;DHT22;2042;47.956;9.222;2023-02-22T05:18:00;-3.70;5.90
4054;DHT22;2042;47.956;9.222;2023-02-22T05:20:35;-3.80;6.00
4054;DHT22;2042;47.956;9.222;2023-02-22T05:23:02;-3.70;6.90
4054;DHT22;2042;47.956;9.222;2023-02-22T05:25:28;-3.70;7.30
4054;DHT22;2042;47.956;9.222;2023-02-22T05:27:58;-3.60;7.30
4054;DHT22;2042;47.956;9.222;2023-02-22T05:30:27;-3.60;7.00
4054;DHT22;2042;47.956;9.222;2023-02-22T05:32:53;-3.60;6.60
4054;DHT22;2042;47.956;9.222;2023-02-22T05:35:19;-3.70;6.80
4054;DHT22;2042;47.956;9.222;2023-02-22T05:37:45;-3.60;7.40
4054;DHT22;2042;47.956;9.222;2023-02-22T05:40:11;-3.60;7.60
4054;DHT22;2042;47.956;9.222;2023-02-22T05:42:42;-3.60;6.80
4054;DHT22;2042;47.956;9.222;2023-02-22T05:45:10;-3.70;6.10
4054;DHT22;2042;47.956;9.222;2023-02-22T05:47:36;-3.80;5.30
4054;DHT22;2042;47.956;9.222;2023-02-22T05:50:02;-3.90;4.80
4054;DHT22;2042;47.956;9.222;2023-02-22T05:52:28;-4.00;4.50
4054;DHT22;2042;47.956;9.222;2023-02-22T05:54:53;-4.10;4.30
4054;DHT22;2042;47.956;9.222;2023-02-22T05:57:19;-4.10;4.10
4054;DHT22;2042;47.956;9.222;2023-02-22T05:59:45;-4.20;4.10
4054;DHT22;2042;47.956;9.222;2023-02-22T06:02:10;-4.10;4.70
4054;DHT22;2042;47.956;9.222;2023-02-22T06:04:36;-4.10;5.20
4054;DHT22;2042;47.956;9.222;2023-02-22T06:07:02;-4.10;5.80
4054;DHT22;2042;47.956;9.222;2023-02-22T06:09:27;-4.00;6.00
4054;DHT22;2042;47.956;9.222;2023-02-22T06:11:53;-4.00;5.80
4054;DHT22;2042;47.956;9.222;2023-02-22T06:14:19;-4.10;5.40
4054;DHT22;2042;47.956;9.222;2023-02-22T06:16:51;-4.10;5.50
4054;DHT22;2042;47.956;9.222;2023-02-22T06:19:17;-4.10;5.70
4054;DHT22;2042;47.956;9.222;2023-02-22T06:21:56;-4.10;6.00
4054;DHT22;2042;47.956;9.222;2023-02-22T06:24:24;-4.00;6.40
4054;DHT22;2042;47.956;9.222;2023-02-22T06:26:59;-3.90;7.00
4054;DHT22;2042;47.956;9.222;2023-02-22T06:29:27;-3.80;8.00
4054;DHT22;2042;47.956;9.222;2023-02-22T06:31:53;-3.70;8.60
4054;DHT22;2042;47.956;9.222;2023-02-22T06:34:20;-3.60;8.80
4054;DHT22;2042;47.956;9.222;2023-02-22T06:36:49;-3.50;9.00
4054;DHT22;2042;47.956;9.222;2023-02-22T06:39:15;-3.40;9.90
4054;DHT22;2042;47.956;9.222;2023-02-22T06:41:42;-3.20;11.10
4054;DHT22;2042;47.956;9.222;2023-02-22T06:44:08;-3.00;12.20
4054;DHT22;2042;47.956;9.222;2023-02-22T06:46:35;-2.80;12.90
4054;DHT22;2042;47.956;9.222;2023-02-22T06:49:01;-2.60;12.90
4054;DHT22;2042;47.956;9.222;2023-02-22T06:51:28;-2.50;12.90
4054;DHT22;2042;47.956;9.222;2023-02-22T06:53:54;-2.40;13.00
4054;DHT22;2042;47.956;9.222;2023-02-22T06:56:22;-2.30;13.20
4054;DHT22;2042;47.956;9.222;2023-02-22T06:58:48;-2.10;13.50
4054;DHT22;2042;47.956;9.222;2023-02-22T07:01:14;-1.90;13.90
4054;DHT22;2042;47.956;9.222;2023-02-22T07:03:40;-1.70;13.90
4054;DHT22;2042;47.956;9.222;2023-02-22T07:06:08;-1.60;13.90
4054;DHT22;2042;47.956;9.222;2023-02-22T07:08:36;-1.40;14.10
4054;DHT22;2042;47.956;9.222;2023-02-22T07:11:02;-1.30;14.30
4054;DHT22;2042;47.956;9.222;2023-02-22T07:13:29;-1.10;14.40
4054;DHT22;2042;47.956;9.222;2023-02-22T07:15:54;-1.00;14.40
4054;DHT22;2042;47.956;9.222;2023-02-22T07:18:21;-0.80;14.50
4054;DHT22;2042;47.956;9.222;2023-02-22T07:20:49;-0.70;14.50
4054;DHT22;2042;47.956;9.222;2023-02-22T07:23:15;-0.60;14.40
4054;DHT22;2042;47.956;9.222;2023-02-22T07:25:43;-0.50;14.30
4054;DHT22;2042;47.956;9.222;2023-02-22T07:28:09;-0.40;14.10
4054;DHT22;2042;47.956;9.222;2023-02-22T07:30:37;-0.20;13.90
4054;DHT22;2042;47.956;9.222;2023-02-22T07:33:07;-0.20;13.40
4054;DHT22;2042;47.956;9.222;2023-02-22T07:35:35;-0.10;12.70
4054;DHT22;2042;47.956;9.222;2023-02-22T07:38:06;0.00;11.80
4054;DHT22;2042;47.956;9.222;2023-02-22T07:40:36;0.10;11.20
4054;DHT22;2042;47.956;9.222;2023-02-22T07:45:31;0.40;10.50
4054;DHT22;2042;47.956;9.222;2023-02-22T07:47:58;0.50;9.40
4054;DHT22;2042;47.956;9.222;2023-02-22T07:50:28;0.60;8.60
4054;DHT22;2042;47.956;9.222;2023-02-22T07:52:57;0.80;9.20
4054;DHT22;2042;47.956;9.222;2023-02-22T07:55:28;1.00;9.10
4054;DHT22;2042;47.956;9.222;2023-02-22T07:58:05;1.30;8.30
4054;DHT22;2042;47.956;9.222;2023-02-22T08:00:38;1.50;7.50
4054;DHT22;2042;47.956;9.222;2023-02-22T08:03:06;1.80;6.10
4054;DHT22;2042;47.956;9.222;2023-02-22T08:05:34;2.10;4.00
4054;DHT22;2042;47.956;9.222;2023-02-22T08:08:00;2.50;2.40
4054;DHT22;2042;47.956;9.222;2023-02-22T08:10:27;2.80;1.00
4054;DHT22;2042;47.956;9.222;2023-02-22T08:12:53;3.20;1.00
4054;DHT22;2042;47.956;9.222;2023-02-22T08:15:23;3.60;1.00
4054;DHT22;2042;47.956;9.222;2023-02-22T08:17:49;4.30;1.00
4054;DHT22;2042;47.956;9.222;2023-02-22T08:25:11;7.90;1.00
4054;DHT22;2042;47.956;9.222;2023-02-22T08:27:38;9.10;1.00
4054;DHT22;2042;47.956;9.222;2023-02-22T08:30:04;10.40;1.00
4054;DHT22;2042;47.956;9.222;2023-02-22T08:32:30;10.90;1.00
4054;DHT22;2042;47.956;9.222;2023-02-22T08:34:56;10.50;1.00
4054;DHT22;2042;47.956;9.222;2023-02-22T08:37:21;10.10;1.00
4054;DHT22;2042;47.956;9.222;2023-02-22T08:39:47;9.90;1.00
4054;DHT22;2042;47.956;9.222;2023-02-22T08:42:12;9.90;1.00
4054;DHT22;2042;47.956;9.222;2023-02-22T08:44:39;9.70;1.00
4054;DHT22;2042;47.956;9.222;2023-02-22T08:47:06;9.50;1.00
4054;DHT22;2042;47.956;9.222;2023-02-22T08:49:32;9.50;1.00
4054;DHT22;2042;47.956;9.222;2023-02-22T08:51:59;9.60;1.00
4054;DHT22;2042;47.956;9.222;2023-02-22T08:54:24;9.60;1.00
4054;DHT22;2042;47.956;9.222;2023-02-22T08:56:51;9.70;1.00
4054;DHT22;2042;47.956;9.222;2023-02-22T08:59:18;9.80;1.00
4054;DHT22;2042;47.956;9.222;2023-02-22T09:01:44;10.00;1.00
4054;DHT22;2042;47.956;9.222;2023-02-22T09:04:10;10.20;1.00
4054;DHT22;2042;47.956;9.222;2023-02-22T09:06:43;10.50;1.00
4054;DHT22;2042;47.956;9.222;2023-02-22T09:09:14;10.70;1.00
4054;DHT22;2042;47.956;9.222;2023-02-22T09:11:44;10.70;1.00
4054;DHT22;2042;47.956;9.222;2023-02-22T09:14:10;10.60;1.00
4054;DHT22;2042;47.956;9.222;2023-02-22T09:16:37;10.60;1.00
4054;DHT22;2042;47.956;9.222;2023-02-22T09:19:03;11.80;1.00
4054;DHT22;2042;47.956;9.222;2023-02-22T09:21:30;12.60;1.00
4054;DHT22;2042;47.956;9.222;2023-02-22T09:23:57;14.10;1.00
4054;DHT22;2042;47.956;9.222;2023-02-22T09:26:38;15.10;1.00
4054;DHT22;2042;47.956;9.222;2023-02-22T09:29:06;15.60;1.00
4054;DHT22;2042;47.956;9.222;2023-02-22T09:31:38;16.00;1.00
4054;DHT22;2042;47.956;9.222;2023-02-22T09:34:05;16.30;1.00
4054;DHT22;2042;47.956;9.222;2023-02-22T09:39:16;17.70;1.00
4054;DHT22;2042;47.956;9.222;2023-02-22T09:41:55;17.90;1.00
4054;DHT22;2042;47.956;9.222;2023-02-22T09:44:49;17.70;1.00
4054;DHT22;2042;47.956;9.222;2023-02-22T09:47:37;17.40;1.00
4054;DHT22;2042;47.956;9.222;2023-02-22T09:50:57;18.00;1.00
4054;DHT22;2042;47.956;9.222;2023-02-22T09:53:35;18.80;1.00
4054;DHT22;2042;47.956;9.222;2023-02-22T09:56:10;18.90;1.00
4054;DHT22;2042;47.956;9.222;2023-02-22T09:58:58;18.10;1.00
4054;DHT22;2042;47.956;9.222;2023-02-22T10:01:44;16.90;1.00
4054;DHT22;2042;47.956;9.222;2023-02-22T10:04:18;15.70;1.00
4054;DHT22;2042;47.956;9.222;2023-02-22T10:09:39;13.50;1.00
4054;DHT22;2042;47.956;9.222;2023-02-22T10:12:29;12.30;1.00
4054;DHT22;2042;47.956;9.222;2023-02-22T10:21:01;12.60;1.00
4054;DHT22;2042;47.956;9.222;2023-02-22T10:24:03;13.20;1.00
4054;DHT22;2042;47.956;9.222;2023-02-22T10:26:33;13.70;1.00
4054;DHT22;2042;47.956;9.222;2023-02-22T10:29:16;14.50;1.00
4054;DHT22;2042;47.956;9.222;2023-02-22T10:33:41;17.70;1.00
4054;DHT22;2042;47.956;9.222;2023-02-22T10:36:21;20.10;1.00
4054;DHT22;2042;47.956;9.222;2023-02-22T10:38:52;21.30;1.00
4054;DHT22;2042;47.956;9.222;2023-02-22T10:41:30;21.40;1.00
4054;DHT22;2042;47.956;9.222;2023-02-22T10:43:57;20.40;1.00
4054;DHT22;2042;47.956;9.222;2023-02-22T10:46:26;19.20;1.00
4054;DHT22;2042;47.956;9.222;2023-02-22T10:48:56;18.00;1.00
4054;DHT22;2042;47.956;9.222;2023-02-22T10:51:26;17.00;1.00
4054;DHT22;2042;47.956;9.222;2023-02-22T10:56:53;16.30;1.00
4054;DHT22;2042;47.956;9.222;2023-02-22T12:54:18;19.50;1.00
4054;DHT22;2042;47.956;9.222;2023-02-22T13:01:58;22.80;1.00
4054;DHT22;2042;47.956;9.222;2023-02-22T13:04:26;23.60;1.00
4054;DHT22;2042;47.956;9.222;2023-02-22T13:10:35;24.00;1.00
4054;DHT22;2042;47.956;9.222;2023-02-22T13:13:09;23.00;1.00
4054;DHT22;2042;47.956;9.222;2023-02-22T13:18:30;20.20;1.00
4054;DHT22;2042;47.956;9.222;2023-02-22T13:23:57;19.20;1.00
4054;DHT22;2042;47.956;9.222;2023-02-22T13:26:37;19.00;1.00
4054;DHT22;2042;47.956;9.222;2023-02-22T13:29:20;19.20;1.00
4054;DHT22;2042;47.956;9.222;2023-02-22T13:43:10;18.00;1.00
4054;DHT22;2042;47.956;9.222;2023-02-22T13:53:36;15.40;1.00
4054;DHT22;2042;47.956;9.222;2023-02-22T13:56:09;15.10;1.00
4054;DHT22;2042;47.956;9.222;2023-02-22T14:01:47;14.50;1.00
4054;DHT22;2042;47.956;9.222;2023-02-22T14:04:33;14.40;1.00
4054;DHT22;2042;47.956;9.222;2023-02-22T14:09:56;14.00;1.00
4054;DHT22;2042;47.956;9.222;2023-02-22T14:17:46;13.90;1.00
4054;DHT22;2042;47.956;9.222;2023-02-22T14:22:48;14.10;1.00
4054;DHT22;2042;47.956;9.222;2023-02-22T14:28:05;14.30;1.00
4054;DHT22;2042;47.956;9.222;2023-02-22T14:30:34;14.50;1.00
4054;DHT22;2042;47.956;9.222;2023-02-22T14:33:12;14.50;1.00
4054;DHT22;2042;47.956;9.222;2023-02-22T14:35:49;14.50;1.00
4054;DHT22;2042;47.956;9.222;2023-02-22T14:38:17;14.40;1.00
4054;DHT22;2042;47.956;9.222;2023-02-22T14:40:47;14.30;1.00
4054;DHT22;2042;47.956;9.222;2023-02-22T14:43:25;14.20;1.00
4054;DHT22;2042;47.956;9.222;2023-02-22T14:45:56;14.00;1.00
4054;DHT22;2042;47.956;9.222;2023-02-22T14:48:29;13.80;1.00
4054;DHT22;2042;47.956;9.222;2023-02-22T14:51:28;13.70;1.00
4054;DHT22;2042;47.956;9.222;2023-02-22T14:54:25;13.70;1.00
4054;DHT22;2042;47.956;9.222;2023-02-22T14:59:25;13.70;1.00
4054;DHT22;2042;47.956;9.222;2023-02-22T15:02:05;13.70;1.00
4054;DHT22;2042;47.956;9.222;2023-02-22T15:04:31;13.70;1.00
4054;DHT22;2042;47.956;9.222;2023-02-22T15:06:59;13.60;1.00
4054;DHT22;2042;47.956;9.222;2023-02-22T15:09:27;13.50;1.00
4054;DHT22;2042;47.956;9.222;2023-02-22T15:14:31;13.30;1.00
4054;DHT22;2042;47.956;9.222;2023-02-22T15:17:08;13.20;1.00
4054;DHT22;2042;47.956;9.222;2023-02-22T15:19:38;13.10;1.00
4054;DHT22;2042;47.956;9.222;2023-02-22T15:22:04;12.90;1.00
4054;DHT22;2042;47.956;9.222;2023-02-22T15:24:35;12.80;1.00
4054;DHT22;2042;47.956;9.222;2023-02-22T15:27:06;12.70;1.00
4054;DHT22;2042;47.956;9.222;2023-02-22T15:29:42;12.60;1.00
4054;DHT22;2042;47.956;9.222;2023-02-22T15:32:33;12.60;1.00
4054;DHT22;2042;47.956;9.222;2023-02-22T15:37:43;12.40;1.00
4054;DHT22;2042;47.956;9.222;2023-02-22T15:40:14;12.30;1.00
4054;DHT22;2042;47.956;9.222;2023-02-22T15:42:47;12.20;1.00
4054;DHT22;2042;47.956;9.222;2023-02-22T15:45:18;12.10;1.00
4054;DHT22;2042;47.956;9.222;2023-02-22T15:47:45;12.10;1.00
4054;DHT22;2042;47.956;9.222;2023-02-22T15:50:26;12.10;1.00
4054;DHT22;2042;47.956;9.222;2023-02-22T15:53:00;12.00;1.00
4054;DHT22;2042;47.956;9.222;2023-02-22T15:57:53;11.90;1.00
4054;DHT22;2042;47.956;9.222;2023-02-22T16:00:25;11.80;1.00
4054;DHT22;2042;47.956;9.222;2023-02-22T16:03:02;11.70;1.00
4054;DHT22;2042;47.956;9.222;2023-02-22T16:05:52;11.50;1.00
4054;DHT22;2042;47.956;9.222;2023-02-22T16:08:23;11.40;1.00
4054;DHT22;2042;47.956;9.222;2023-02-22T16:11:06;11.20;1.00
4054;DHT22;2042;47.956;9.222;2023-02-22T16:13:39;11.10;1.00
4054;DHT22;2042;47.956;9.222;2023-02-22T16:16:21;11.00;1.00
4054;DHT22;2042;47.956;9.222;2023-02-22T16:18:49;11.00;1.00
4054;DHT22;2042;47.956;9.222;2023-02-22T16:21:20;11.00;1.00
4054;DHT22;2042;47.956;9.222;2023-02-22T16:23:49;10.90;1.00
4054;DHT22;2042;47.956;9.222;2023-02-22T16:26:30;10.90;1.00
4054;DHT22;2042;47.956;9.222;2023-02-22T16:29:01;10.90;1.00
4054;DHT22;2042;47.956;9.222;2023-02-22T16:31:29;10.80;1.00
4054;DHT22;2042;47.956;9.222;2023-02-22T16:33:58;10.70;1.00
4054;DHT22;2042;47.956;9.222;2023-02-22T16:36:42;10.60;1.00
4054;DHT22;2042;47.956;9.222;2023-02-22T16:39:17;10.40;1.00
4054;DHT22;2042;47.956;9.222;2023-02-22T16:41:44;10.20;1.00
4054;DHT22;2042;47.956;9.222;2023-02-22T16:44:12;10.10;1.00
4054;DHT22;2042;47.956;9.222;2023-02-22T16:46:38;10.00;1.00
4054;DHT22;2042;47.956;9.222;2023-02-22T16:49:08;9.90;1.00
4054;DHT22;2042;47.956;9.222;2023-02-22T16:52:15;9.80;1.00
4054;DHT22;2042;47.956;9.222;2023-02-22T16:54:43;9.70;1.00
4054;DHT22;2042;47.956;9.222;2023-02-22T16:57:19;9.60;1.00
4054;DHT22;2042;47.956;9.222;2023-02-22T16:59:45;9.60;1.00
4054;DHT22;2042;47.956;9.222;2023-02-22T17:02:15;9.50;1.00
4054;DHT22;2042;47.956;9.222;2023-02-22T17:04:42;9.40;1.00
4054;DHT22;2042;47.956;9.222;2023-02-22T17:07:18;9.40;1.00
4054;DHT22;2042;47.956;9.222;2023-02-22T17:09:45;9.40;1.00
4054;DHT22;2042;47.956;9.222;2023-02-22T17:12:11;9.30;1.00
4054;DHT22;2042;47.956;9.222;2023-02-22T17:14:38;9.20;1.00
4054;DHT22;2042;47.956;9.222;2023-02-22T17:17:05;9.10;1.00
4054;DHT22;2042;47.956;9.222;2023-02-22T17:19:31;9.10;1.00
4054;DHT22;2042;47.956;9.222;2023-02-22T17:21:57;9.10;1.00
4054;DHT22;2042;47.956;9.222;2023-02-22T17:24:24;9.10;1.00
4054;DHT22;2042;47.956;9.222;2023-02-22T17:26:53;9.10;1.00
4054;DHT22;2042;47.956;9.222;2023-02-22T17:29:22;9.10;1.00
4054;DHT22;2042;47.956;9.222;2023-02-22T17:31:49;9.10;1.00
4054;DHT22;2042;47.956;9.222;2023-02-22T17:34:17;9.00;1.00
4054;DHT22;2042;47.956;9.222;2023-02-22T17:36:43;9.00;1.00
4054;DHT22;2042;47.956;9.222;2023-02-22T17:39:08;8.80;1.00
4054;DHT22;2042;47.956;9.222;2023-02-22T17:41:35;8.70;1.00
4054;DHT22;2042;47.956;9.222;2023-02-22T17:44:02;8.60;1.00
4054;DHT22;2042;47.956;9.222;2023-02-22T17:46:28;8.50;1.00
4054;DHT22;2042;47.956;9.222;2023-02-22T17:48:53;8.50;1.00
4054;DHT22;2042;47.956;9.222;2023-02-22T17:51:21;8.50;1.00
4054;DHT22;2042;47.956;9.222;2023-02-22T17:53:48;8.40;1.00
4054;DHT22;2042;47.956;9.222;2023-02-22T17:56:16;8.40;1.00
4054;DHT22;2042;47.956;9.222;2023-02-22T17:58:48;8.30;1.00
4054;DHT22;2042;47.956;9.222;2023-02-22T18:01:23;8.20;1.00
4054;DHT22;2042;47.956;9.222;2023-02-22T18:03:50;8.10;1.00
4054;DHT22;2042;47.956;9.222;2023-02-22T18:06:18;7.90;1.00
4054;DHT22;2042;47.956;9.222;2023-02-22T18:08:46;7.70;1.00
4054;DHT22;2042;47.956;9.222;2023-02-22T18:11:14;7.60;1.00
4054;DHT22;2042;47.956;9.222;2023-02-22T18:13:40;7.40;1.00
4054;DHT22;2042;47.956;9.222;2023-02-22T18:16:07;7.30;1.00
4054;DHT22;2042;47.956;9.222;2023-02-22T18:18:34;7.20;1.00
4054;DHT22;2042;47.956;9.222;2023-02-22T18:21:00;7.10;1.00
4054;DHT22;2042;47.956;9.222;2023-02-22T18:23:31;7.10;1.00
4054;DHT22;2042;47.956;9.222;2023-02-22T18:25:58;7.00;1.00
4054;DHT22;2042;47.956;9.222;2023-02-22T18:28:24;6.90;1.00
4054;DHT22;2042;47.956;9.222;2023-02-22T18:30:51;6.80;1.00
4054;DHT22;2042;47.956;9.222;2023-02-22T18:33:18;6.70;1.00
4054;DHT22;2042;47.956;9.222;2023-02-22T18:35:48;6.60;1.00
4054;DHT22;2042;47.956;9.222;2023-02-22T18:38:20;6.50;1.00
4054;DHT22;2042;47.956;9.222;2023-02-22T18:41:11;6.40;1.00
4054;DHT22;2042;47.956;9.222;2023-02-22T18:43:38;6.30;1.00
4054;DHT22;2042;47.956;9.222;2023-02-22T18:46:10;6.20;1.00
4054;DHT22;2042;47.956;9.222;2023-02-22T18:48:38;6.00;1.00
4054;DHT22;2042;47.956;9.222;2023-02-22T18:51:07;6.00;1.00
4054;DHT22;2042;47.956;9.222;2023-02-22T18:53:35;5.90;1.00
4054;DHT22;2042;47.956;9.222;2023-02-22T18:56:06;5.90;1.00
4054;DHT22;2042;47.956;9.222;2023-02-22T18:58:33;5.80;1.00
4054;DHT22;2042;47.956;9.222;2023-02-22T19:01:06;5.70;1.00
4054;DHT22;2042;47.956;9.222;2023-02-22T19:03:34;5.60;1.00
4054;DHT22;2042;47.956;9.222;2023-02-22T19:06:05;5.60;1.00
4054;DHT22;2042;47.956;9.222;2023-02-22T19:08:37;5.50;1.00
4054;DHT22;2042;47.956;9.222;2023-02-22T19:11:14;5.50;3.10
4054;DHT22;2042;47.956;9.222;2023-02-22T19:13:45;5.40;3.10
4054;DHT22;2042;47.956;9.222;2023-02-22T19:16:12;5.30;5.00
4054;DHT22;2042;47.956;9.222;2023-02-22T19:18:39;5.30;4.90
4054;DHT22;2042;47.956;9.222;2023-02-22T19:21:06;5.20;1.00
4054;DHT22;2042;47.956;9.222;2023-02-22T19:23:39;5.30;1.00
4054;DHT22;2042;47.956;9.222;2023-02-22T19:26:15;5.30;1.00
4054;DHT22;2042;47.956;9.222;2023-02-22T19:28:47;5.20;1.00
4054;DHT22;2042;47.956;9.222;2023-02-22T19:31:23;5.20;2.50
4054;DHT22;2042;47.956;9.222;2023-02-22T19:33:51;5.10;5.60
4054;DHT22;2042;47.956;9.222;2023-02-22T19:36:20;5.00;9.50
4054;DHT22;2042;47.956;9.222;2023-02-22T19:38:49;5.00;10.50
4054;DHT22;2042;47.956;9.222;2023-02-22T19:41:19;5.00;11.00
4054;DHT22;2042;47.956;9.222;2023-02-22T19:43:53;5.00;11.70
4054;DHT22;2042;47.956;9.222;2023-02-22T19:46:20;4.90;11.80
4054;DHT22;2042;47.956;9.222;2023-02-22T19:48:50;5.00;12.50
4054;DHT22;2042;47.956;9.222;2023-02-22T19:51:21;5.30;12.50
4054;DHT22;2042;47.956;9.222;2023-02-22T19:53:51;4.90;9.00
4054;DHT22;2042;47.956;9.222;2023-02-22T19:56:20;4.90;8.70
4054;DHT22;2042;47.956;9.222;2023-02-22T19:58:52;4.90;8.50
4054;DHT22;2042;47.956;9.222;2023-02-22T20:01:24;4.80;8.00
4054;DHT22;2042;47.956;9.222;2023-02-22T20:03:52;4.90;7.70
4054;DHT22;2042;47.956;9.222;2023-02-22T20:06:21;4.80;7.20
4054;DHT22;2042;47.956;9.222;2023-02-22T20:08:50;4.80;7.20
4054;DHT22;2042;47.956;9.222;2023-02-22T20:11:18;4.80;7.10
4054;DHT22;2042;47.956;9.222;2023-02-22T20:13:45;4.80;7.10
4054;DHT22;2042;47.956;9.222;2023-02-22T20:16:10;4.80;7.00
4054;DHT22;2042;47.956;9.222;2023-02-22T20:18:41;4.70;8.60
4054;DHT22;2042;47.956;9.222;2023-02-22T20:21:11;4.70;10.40
4054;DHT22;2042;47.956;9.222;2023-02-22T20:23:38;4.70;12.10
4054;DHT22;2042;47.956;9.222;2023-02-22T20:26:19;4.70;13.20
4054;DHT22;2042;47.956;9.222;2023-02-22T20:28:51;4.60;14.00
4054;DHT22;2042;47.956;9.222;2023-02-22T20:31:21;4.60;14.30